Weather reports worldwide

Advertisment
Vejer De La Frontera, Spain (8457): temperature & dewpoint: 10.09.2019 17:00:00 - 16.09.2019 17:00:00 (CEST)Vejer De La Frontera, Spain (8457): wind speed & gusts: 10.09.2019 17:00:00 - 16.09.2019 17:00:00 (CEST)Vejer De La Frontera, Spain (8457): wind direction: 10.09.2019 17:00:00 - 16.09.2019 17:00:00 (CEST)Vejer De La Frontera, Spain (8457): reduced air pressure: 10.09.2019 17:00:00 - 16.09.2019 17:00:00 (CEST)Vejer De La Frontera, Spain (8457): precipitation: 10.09.2019 17:00:00 - 16.09.2019 17:00:00 (CEST)
Date & Time tt [°C] td [°C] ff [km/h] ff [kn] fx [km/h] fx [kn] dd ppp [hPa] rr [mm]
16.09.2019 17:00:00 - - - - - - - - -
16.09.2019 16:00:00 27,6 16,0 12 6 23 12 W 1016,7 0,0
16.09.2019 15:00:00 27,2 16,8 6 4 16 9 W 1017,4 0,0
16.09.2019 14:00:00 26,4 16,6 8 4 18 10 W 1018,1 -
16.09.2019 13:00:00 26,5 16,7 1 0 16 9 SSW 1018,7 0,0
16.09.2019 12:00:00 25,0 16,4 4 2 13 7 ESE 1018,8 0,0
16.09.2019 11:00:00 22,7 17,0 3 2 10 5 SE 1018,7 0,0
16.09.2019 10:00:00 18,9 17,4 4 2 8 4 ESE 1018,7 0,0
16.09.2019 09:00:00 17,9 16,7 4 2 9 5 S 1018,3 0,0
16.09.2019 08:00:00 17,3 15,6 3 2 9 5 SSW 1017,9 -
16.09.2019 07:00:00 18,1 15,9 1 1 4 2 SSW 1017,6 0,0
16.09.2019 06:00:00 19,2 17,0 0 0 2 1 N 1017,4 0,0
16.09.2019 05:00:00 19,3 16,9 1 1 4 2 NE 1017,4 0,0
16.09.2019 04:00:00 19,4 17,2 3 2 6 3 NE 1018,0 0,0
16.09.2019 03:00:00 19,6 17,2 1 0 5 3 N 1018,4 0,0
16.09.2019 02:00:00 19,2 17,0 0 0 4 2 N 1018,7 -
16.09.2019 01:00:00 19,4 16,5 1 0 6 3 SE 1018,8 0,0
16.09.2019 00:00:00 20,0 16,8 5 3 10 5 WNW 1018,7 0,0
15.09.2019 23:00:00 20,0 17,2 5 3 7 4 W 1018,6 0,0
15.09.2019 22:00:00 20,3 17,1 4 2 10 5 W 1018,2 0,0
15.09.2019 21:00:00 21,1 16,7 7 4 14 8 W 1017,3 0,0
15.09.2019 20:00:00 23,3 16,3 7 4 19 10 W 1017,1 -
15.09.2019 19:00:00 24,9 14,0 9 5 20 11 W 1016,9 0,0
15.09.2019 18:00:00 26,0 14,4 9 5 19 10 WSW 1016,9 0,0
15.09.2019 17:00:00 26,6 15,3 11 6 22 12 WSW 1016,8 0,0
15.09.2019 16:00:00 27,0 16,3 13 7 24 13 WSW 1017,2 0,0
15.09.2019 15:00:00 26,7 17,2 10 6 20 11 SW 1017,5 0,0
15.09.2019 14:00:00 25,5 17,5 10 5 18 10 SW 1018,2 -
15.09.2019 13:00:00 24,5 17,7 9 5 19 10 WSW 1018,7 0,0
15.09.2019 12:00:00 22,4 17,9 8 5 19 10 W 1018,9 0,0
15.09.2019 11:00:00 22,0 17,8 4 2 11 6 WSW 1018,4 0,0
15.09.2019 10:00:00 20,8 18,9 3 2 6 4 W 1017,8 0,0
15.09.2019 09:00:00 19,3 17,8 2 1 9 5 WSW 1017,6 0,0
15.09.2019 08:00:00 19,8 18,3 1 1 8 4 WNW 1017,1 -
15.09.2019 07:00:00 20,5 18,8 3 2 7 4 S 1017,0 0,0
15.09.2019 06:00:00 20,7 18,8 3 1 10 5 S 1016,8 0,0
15.09.2019 05:00:00 20,7 19,0 4 2 9 5 S 1016,8 0,0
15.09.2019 04:00:00 20,9 18,7 4 2 8 5 S 1016,6 0,0
15.09.2019 03:00:00 21,2 18,5 4 2 14 8 E 1016,9 0,0
15.09.2019 02:00:00 21,3 18,5 5 3 19 11 E 1017,3 -
15.09.2019 01:00:00 21,5 18,5 7 4 20 11 E 1017,2 0,0
15.09.2019 00:00:00 21,6 18,4 6 4 21 12 E 1017,3 0,0
14.09.2019 23:00:00 22,1 18,7 8 4 27 15 E 1017,4 0,0
14.09.2019 22:00:00 22,1 18,5 7 4 30 16 E 1016,8 0,0
14.09.2019 21:00:00 23,4 18,9 10 5 26 14 E 1016,2 0,0
14.09.2019 20:00:00 24,6 18,3 12 6 34 18 E 1015,8 -
14.09.2019 19:00:00 26,1 17,7 18 10 40 22 ESE 1015,4 0,0
14.09.2019 18:00:00 28,0 17,5 15 8 37 20 ESE 1015,2 0,0
14.09.2019 17:00:00 28,6 17,8 15 8 40 21 ESE 1015,2 0,0
14.09.2019 16:00:00 28,4 17,3 16 9 45 24 ESE 1015,3 0,0
14.09.2019 15:00:00 28,3 17,2 19 10 42 23 ESE 1015,7 0,0
14.09.2019 14:00:00 27,3 17,1 18 10 47 26 ESE 1016,2 -
14.09.2019 13:00:00 26,8 17,3 18 10 45 25 E 1016,5 0,0
14.09.2019 12:00:00 26,1 16,9 17 9 41 22 ESE 1016,7 0,0
14.09.2019 11:00:00 23,4 17,4 13 7 40 21 E 1016,8 0,0
14.09.2019 10:00:00 23,3 18,2 13 7 30 16 E 1016,8 0,0
14.09.2019 09:00:00 21,6 17,6 11 6 40 22 E 1016,4 0,0
14.09.2019 08:00:00 21,3 17,3 17 9 39 21 E 1016,0 -
14.09.2019 07:00:00 21,4 17,4 12 7 34 18 E 1015,6 0,0
14.09.2019 06:00:00 21,4 17,8 13 7 39 21 E 1015,6 0,0
14.09.2019 05:00:00 21,7 17,9 13 7 31 17 E 1015,4 0,0
14.09.2019 04:00:00 22,2 17,4 11 6 32 17 E 1015,8 0,0
14.09.2019 03:00:00 22,0 17,0 8 5 33 18 E 1016,5 0,0
14.09.2019 02:00:00 21,8 17,0 13 7 34 19 E 1016,9 -
14.09.2019 01:00:00 21,3 16,9 13 7 27 15 E 1017,3 0,0
14.09.2019 00:00:00 21,2 17,0 8 4 26 14 E 1017,6 0,0
13.09.2019 23:00:00 21,1 16,9 13 7 26 14 E 1017,6 0,0
13.09.2019 22:00:00 21,0 15,8 6 3 28 15 E 1017,5 0,0
13.09.2019 21:00:00 21,5 15,3 12 6 29 16 E 1016,9 0,0
13.09.2019 20:00:00 22,5 16,0 12 7 34 18 E 1016,8 -
13.09.2019 19:00:00 23,3 15,9 16 9 36 20 E 1016,4 0,0
13.09.2019 18:00:00 - - 13 7 40 21 E - 0,0
13.09.2019 17:00:00 24,2 15,2 19 10 45 25 E 1016,3 0,0
13.09.2019 16:00:00 25,2 14,9 17 9 44 24 E 1016,3 0,0
13.09.2019 15:00:00 25,3 14,7 19 11 45 25 E 1016,5 0,0
13.09.2019 14:00:00 26,4 14,5 18 10 40 22 E 1016,8 -
13.09.2019 13:00:00 25,6 14,4 20 11 42 23 E 1017,2 0,0
13.09.2019 12:00:00 23,4 14,4 16 9 39 21 E 1017,9 0,0
13.09.2019 11:00:00 23,3 15,6 12 7 25 13 E 1017,5 0,0
13.09.2019 10:00:00 21,1 15,0 6 4 18 10 E 1017,4 0,0
13.09.2019 09:00:00 18,6 13,9 5 3 12 7 E 1017,2 0,0
13.09.2019 08:00:00 18,1 13,8 5 3 24 13 ENE 1017,7 -
13.09.2019 07:00:00 18,0 14,1 13 7 27 15 E 1016,8 0,0
13.09.2019 06:00:00 18,0 14,1 9 5 27 14 E 1017,5 0,0
13.09.2019 05:00:00 18,0 13,5 8 4 20 11 ESE 1017,9 0,0
13.09.2019 04:00:00 18,8 13,5 8 4 29 16 ENE 1018,4 0,0
13.09.2019 03:00:00 19,0 13,2 9 5 29 16 E 1019,1 0,0
13.09.2019 02:00:00 19,5 12,7 9 5 31 17 E 1019,2 -
13.09.2019 01:00:00 19,7 11,0 8 5 23 12 E 1019,6 0,0
13.09.2019 00:00:00 19,8 11,0 7 4 22 12 E 1019,7 0,0
12.09.2019 23:00:00 19,7 11,0 5 3 23 12 E 1020,0 0,0
12.09.2019 22:00:00 20,1 10,5 11 6 38 20 E 1020,0 0,0
12.09.2019 21:00:00 21,1 10,3 13 7 41 22 E 1019,5 0,0
12.09.2019 20:00:00 23,2 10,6 16 9 41 22 E 1019,2 -
12.09.2019 19:00:00 24,0 9,9 20 11 51 27 E 1019,1 0,0
12.09.2019 18:00:00 25,1 10,9 19 10 50 27 E 1018,9 0,0
12.09.2019 17:00:00 25,8 10,4 16 9 48 26 E 1018,9 0,0
12.09.2019 16:00:00 26,4 11,7 14 8 40 21 E 1019,1 0,0
12.09.2019 15:00:00 25,5 11,2 11 6 35 19 ENE 1019,5 0,0
12.09.2019 14:00:00 24,9 12,1 11 6 36 20 E 1020,0 -
12.09.2019 13:00:00 24,1 12,1 13 7 34 18 E 1020,2 0,0
12.09.2019 12:00:00 24,5 11,4 14 8 33 18 E 1020,3 0,0
12.09.2019 11:00:00 21,8 13,7 6 3 16 9 ESE 1020,0 0,0
12.09.2019 10:00:00 19,3 14,1 5 3 11 6 ENE 1019,9 0,0
12.09.2019 09:00:00 18,1 13,2 4 2 13 7 E 1019,4 0,0
12.09.2019 08:00:00 17,9 12,7 5 3 13 7 E 1018,8 -
12.09.2019 07:00:00 18,2 13,1 5 3 29 16 E 1018,8 0,0
12.09.2019 06:00:00 18,5 12,7 8 4 22 12 E 1018,2 0,0
12.09.2019 05:00:00 18,8 13,3 7 4 34 19 E 1018,4 0,0
12.09.2019 04:00:00 19,0 12,0 13 7 29 16 E 1018,7 0,0
12.09.2019 03:00:00 19,1 11,1 5 3 24 13 E 1018,5 0,0
12.09.2019 02:00:00 20,3 12,3 11 6 24 13 N 1018,3 -
12.09.2019 01:00:00 21,0 11,6 9 5 23 12 NNW 1018,4 0,0
12.09.2019 00:00:00 21,1 13,3 6 4 17 9 NW 1018,8 0,0
11.09.2019 23:00:00 21,0 13,0 8 4 21 11 WNW 1019,0 0,0
11.09.2019 22:00:00 21,1 12,5 11 6 21 11 W 1018,3 0,0
11.09.2019 21:00:00 23,2 7,3 6 3 13 7 SSE 1017,2 0,0
11.09.2019 20:00:00 23,5 8,0 5 3 21 12 SSE 1016,8 -
11.09.2019 19:00:00 23,7 12,0 9 5 28 15 SE 1016,7 0,0
11.09.2019 18:00:00 27,9 11,9 9 5 31 17 ESE 1015,2 0,0
11.09.2019 17:00:00 29,2 9,3 8 4 23 12 ENE 1015,3 0,0
11.09.2019 16:00:00 28,5 6,5 5 3 24 13 N 1015,7 0,0
11.09.2019 15:00:00 27,6 5,8 5 3 21 12 NNE 1016,5 0,0
11.09.2019 14:00:00 25,8 5,9 5 3 16 9 NNW 1017,3 -
11.09.2019 13:00:00 25,0 8,5 2 1 16 8 ENE 1018,1 0,0
11.09.2019 12:00:00 23,8 9,8 5 3 16 9 E 1018,2 0,0
11.09.2019 11:00:00 21,1 8,7 7 4 18 10 NE 1018,5 0,0
11.09.2019 10:00:00 18,7 11,8 5 3 13 7 WNW 1018,2 0,0
11.09.2019 09:00:00 17,2 14,1 4 2 10 6 WNW 1018,0 0,0
11.09.2019 08:00:00 16,1 13,8 2 1 7 4 ENE 1017,6 -
11.09.2019 07:00:00 16,8 14,6 3 1 11 6 NE 1016,8 0,0
11.09.2019 06:00:00 17,2 14,8 8 4 14 8 SW 1015,7 0,0
11.09.2019 05:00:00 17,5 15,2 8 5 18 10 SSW 1016,0 0,0
11.09.2019 04:00:00 17,8 15,4 5 3 21 12 S 1016,7 0,0
11.09.2019 03:00:00 18,0 15,3 10 5 22 12 SSW 1016,7 0,0
11.09.2019 02:00:00 18,1 15,2 8 4 22 12 SSW 1017,1 -
11.09.2019 01:00:00 18,5 15,5 10 6 21 11 SSW 1017,3 0,0
11.09.2019 00:00:00 19,0 15,4 11 6 23 13 SSW 1017,0 0,0
10.09.2019 23:00:00 19,0 14,9 5 3 21 11 SSW 1017,1 0,0
10.09.2019 22:00:00 19,4 14,2 15 8 29 15 WSW 1016,6 0,0
10.09.2019 21:00:00 19,7 13,7 18 10 36 19 WSW 1015,7 0,0
10.09.2019 20:00:00 21,0 11,0 21 11 40 22 W 1015,3 -
10.09.2019 19:00:00 22,6 11,3 18 10 43 23 W 1015,1 0,0
10.09.2019 18:00:00 23,3 10,6 23 12 44 24 W 1015,2 0,0
10.09.2019 17:00:00 23,1 10,5 20 11 45 24 W 1015,6 0,0

tt = temperature
td = dewpoint
ff = wind speed
fx = gusts
dd = wind direction
ppp = reduced air pressure
rr = precipitation

Next stations